sensor_id;sensor_type;location;lat;lon;timestamp;temperature;humidity
64858;SHT30;51335;51.148;6.950;2022-09-28T00:00:18;9.07;97.00
64858;SHT30;51335;51.148;6.950;2022-09-28T00:00:48;9.08;96.98
64858;SHT30;51335;51.148;6.950;2022-09-28T00:01:20;9.08;96.98
64858;SHT30;51335;51.148;6.950;2022-09-28T00:01:51;9.07;96.90
64858;SHT30;51335;51.148;6.950;2022-09-28T00:02:21;9.07;96.91
64858;SHT30;51335;51.148;6.950;2022-09-28T00:02:53;9.07;96.90
64858;SHT30;51335;51.148;6.950;2022-09-28T00:03:24;9.04;96.90
64858;SHT30;51335;51.148;6.950;2022-09-28T00:03:55;9.07;96.93
64858;SHT30;51335;51.148;6.950;2022-09-28T00:04:25;9.04;96.94
64858;SHT30;51335;51.148;6.950;2022-09-28T00:04:56;9.05;96.92
64858;SHT30;51335;51.148;6.950;2022-09-28T00:05:26;9.07;96.92
64858;SHT30;51335;51.148;6.950;2022-09-28T00:06:01;9.07;96.87
64858;SHT30;51335;51.148;6.950;2022-09-28T00:06:32;9.07;96.79
64858;SHT30;51335;51.148;6.950;2022-09-28T00:07:02;9.07;96.87
64858;SHT30;51335;51.148;6.950;2022-09-28T00:07:32;9.10;96.87
64858;SHT30;51335;51.148;6.950;2022-09-28T00:08:02;9.10;96.83
64858;SHT30;51335;51.148;6.950;2022-09-28T00:08:36;9.05;96.81
64858;SHT30;51335;51.148;6.950;2022-09-28T00:09:06;9.07;96.81
64858;SHT30;51335;51.148;6.950;2022-09-28T00:09:36;9.07;96.83
64858;SHT30;51335;51.148;6.950;2022-09-28T00:10:07;9.07;96.80
64858;SHT30;51335;51.148;6.950;2022-09-28T00:10:37;9.08;96.78
64858;SHT30;51335;51.148;6.950;2022-09-28T00:11:11;9.05;96.72
64858;SHT30;51335;51.148;6.950;2022-09-28T00:11:41;9.02;96.68
64858;SHT30;51335;51.148;6.950;2022-09-28T00:12:11;9.04;96.65
64858;SHT30;51335;51.148;6.950;2022-09-28T00:12:41;9.01;96.63
64858;SHT30;51335;51.148;6.950;2022-09-28T00:13:12;9.04;96.67
64858;SHT30;51335;51.148;6.950;2022-09-28T00:13:42;9.01;96.70
64858;SHT30;51335;51.148;6.950;2022-09-28T00:14:12;9.01;96.68
64858;SHT30;51335;51.148;6.950;2022-09-28T00:14:43;9.02;96.64
64858;SHT30;51335;51.148;6.950;2022-09-28T00:15:13;8.98;96.66
64858;SHT30;51335;51.148;6.950;2022-09-28T00:15:43;8.97;96.69
64858;SHT30;51335;51.148;6.950;2022-09-28T00:16:20;9.01;96.73
64858;SHT30;51335;51.148;6.950;2022-09-28T00:16:50;9.00;96.73
64858;SHT30;51335;51.148;6.950;2022-09-28T00:17:20;8.98;96.76
64858;SHT30;51335;51.148;6.950;2022-09-28T00:17:51;9.00;96.77
64858;SHT30;51335;51.148;6.950;2022-09-28T00:18:21;8.97;96.80
64858;SHT30;51335;51.148;6.950;2022-09-28T00:18:52;9.00;96.77
64858;SHT30;51335;51.148;6.950;2022-09-28T00:19:23;8.98;96.81
64858;SHT30;51335;51.148;6.950;2022-09-28T00:19:55;8.97;96.71
64858;SHT30;51335;51.148;6.950;2022-09-28T00:20:25;8.97;96.54
64858;SHT30;51335;51.148;6.950;2022-09-28T00:21:10;8.98;96.57
64858;SHT30;51335;51.148;6.950;2022-09-28T00:21:41;8.94;96.57
64858;SHT30;51335;51.148;6.950;2022-09-28T00:22:11;8.95;96.57
64858;SHT30;51335;51.148;6.950;2022-09-28T00:22:41;8.94;96.50
64858;SHT30;51335;51.148;6.950;2022-09-28T00:23:12;8.94;96.50
64858;SHT30;51335;51.148;6.950;2022-09-28T00:23:42;8.92;96.54
64858;SHT30;51335;51.148;6.950;2022-09-28T00:24:13;8.91;96.58
64858;SHT30;51335;51.148;6.950;2022-09-28T00:24:44;8.91;96.56
64858;SHT30;51335;51.148;6.950;2022-09-28T00:25:14;8.98;96.59
64858;SHT30;51335;51.148;6.950;2022-09-28T00:25:44;8.95;96.44
64858;SHT30;51335;51.148;6.950;2022-09-28T00:26:15;8.95;96.35
64858;SHT30;51335;51.148;6.950;2022-09-28T00:26:50;8.95;96.34
64858;SHT30;51335;51.148;6.950;2022-09-28T00:27:21;8.89;96.30
64858;SHT30;51335;51.148;6.950;2022-09-28T00:27:51;8.88;96.31
64858;SHT30;51335;51.148;6.950;2022-09-28T00:28:21;8.89;96.36
64858;SHT30;51335;51.148;6.950;2022-09-28T00:28:53;8.91;96.35
64858;SHT30;51335;51.148;6.950;2022-09-28T00:29:58;8.92;96.23
64858;SHT30;51335;51.148;6.950;2022-09-28T00:30:28;8.95;96.16
64858;SHT30;51335;51.148;6.950;2022-09-28T00:30:59;8.92;96.18
64858;SHT30;51335;51.148;6.950;2022-09-28T00:31:31;8.91;96.16
64858;SHT30;51335;51.148;6.950;2022-09-28T00:32:11;8.89;96.16
64858;SHT30;51335;51.148;6.950;2022-09-28T00:32:42;8.89;96.20
64858;SHT30;51335;51.148;6.950;2022-09-28T00:33:12;8.89;96.28
64858;SHT30;51335;51.148;6.950;2022-09-28T00:33:42;8.88;96.25
64858;SHT30;51335;51.148;6.950;2022-09-28T00:34:13;8.89;96.24
64858;SHT30;51335;51.148;6.950;2022-09-28T00:34:44;8.91;96.30
64858;SHT30;51335;51.148;6.950;2022-09-28T00:35:15;8.91;96.14
64858;SHT30;51335;51.148;6.950;2022-09-28T00:35:45;8.91;96.18
64858;SHT30;51335;51.148;6.950;2022-09-28T00:36:15;8.91;96.08
64858;SHT30;51335;51.148;6.950;2022-09-28T00:36:46;8.91;96.08
64858;SHT30;51335;51.148;6.950;2022-09-28T00:37:17;8.91;96.09
64858;SHT30;51335;51.148;6.950;2022-09-28T00:37:48;8.88;96.08
64858;SHT30;51335;51.148;6.950;2022-09-28T00:38:18;8.84;96.08
64858;SHT30;51335;51.148;6.950;2022-09-28T00:38:49;8.85;96.13
64858;SHT30;51335;51.148;6.950;2022-09-28T00:39:19;8.85;96.14
64858;SHT30;51335;51.148;6.950;2022-09-28T00:39:49;8.82;96.17
64858;SHT30;51335;51.148;6.950;2022-09-28T00:40:19;8.80;96.21
64858;SHT30;51335;51.148;6.950;2022-09-28T00:40:50;8.80;96.12
64858;SHT30;51335;51.148;6.950;2022-09-28T00:41:20;8.82;96.21
64858;SHT30;51335;51.148;6.950;2022-09-28T00:41:50;8.88;96.03
64858;SHT30;51335;51.148;6.950;2022-09-28T00:42:23;8.91;95.81
64858;SHT30;51335;51.148;6.950;2022-09-28T00:42:53;8.91;95.73
64858;SHT30;51335;51.148;6.950;2022-09-28T00:43:23;8.91;95.61
64858;SHT30;51335;51.148;6.950;2022-09-28T00:44:56;8.84;95.41
64858;SHT30;51335;51.148;6.950;2022-09-28T00:45:27;8.80;95.50
64858;SHT30;51335;51.148;6.950;2022-09-28T00:46:01;8.78;95.55
64858;SHT30;51335;51.148;6.950;2022-09-28T00:46:34;8.78;95.58
64858;SHT30;51335;51.148;6.950;2022-09-28T00:48:00;8.71;95.79
64858;SHT30;51335;51.148;6.950;2022-09-28T00:48:33;8.70;95.82
64858;SHT30;51335;51.148;6.950;2022-09-28T00:49:09;8.71;95.89
64858;SHT30;51335;51.148;6.950;2022-09-28T00:49:46;8.65;96.03
64858;SHT30;51335;51.148;6.950;2022-09-28T00:50:24;8.70;95.97
64858;SHT30;51335;51.148;6.950;2022-09-28T00:50:56;8.70;95.98
64858;SHT30;51335;51.148;6.950;2022-09-28T00:51:29;8.68;96.07
64858;SHT30;51335;51.148;6.950;2022-09-28T00:52:05;8.67;96.02
64858;SHT30;51335;51.148;6.950;2022-09-28T00:53:29;8.63;96.19
64858;SHT30;51335;51.148;6.950;2022-09-28T00:54:01;8.64;96.24
64858;SHT30;51335;51.148;6.950;2022-09-28T00:54:33;8.61;96.35
64858;SHT30;51335;51.148;6.950;2022-09-28T00:55:08;8.64;96.37
64858;SHT30;51335;51.148;6.950;2022-09-28T00:55:52;8.61;96.40
64858;SHT30;51335;51.148;6.950;2022-09-28T00:56:27;8.65;96.44
64858;SHT30;51335;51.148;6.950;2022-09-28T00:57:00;8.63;96.48
64858;SHT30;51335;51.148;6.950;2022-09-28T00:57:32;8.63;96.42
64858;SHT30;51335;51.148;6.950;2022-09-28T00:58:06;8.64;96.28
64858;SHT30;51335;51.148;6.950;2022-09-28T00:58:41;8.64;96.30
64858;SHT30;51335;51.148;6.950;2022-09-28T00:59:12;8.63;96.33
64858;SHT30;51335;51.148;6.950;2022-09-28T00:59:43;8.61;96.38
64858;SHT30;51335;51.148;6.950;2022-09-28T01:00:14;8.63;96.39
64858;SHT30;51335;51.148;6.950;2022-09-28T01:00:44;8.65;96.35
64858;SHT30;51335;51.148;6.950;2022-09-28T01:01:15;8.64;96.43
64858;SHT30;51335;51.148;6.950;2022-09-28T01:01:45;8.63;96.41
64858;SHT30;51335;51.148;6.950;2022-09-28T01:02:16;8.64;96.45
64858;SHT30;51335;51.148;6.950;2022-09-28T01:02:47;8.61;96.44
64858;SHT30;51335;51.148;6.950;2022-09-28T01:03:17;8.63;96.50
64858;SHT30;51335;51.148;6.950;2022-09-28T01:03:47;8.63;96.49
64858;SHT30;51335;51.148;6.950;2022-09-28T01:04:18;8.59;96.52
64858;SHT30;51335;51.148;6.950;2022-09-28T01:04:49;8.60;96.61
64858;SHT30;51335;51.148;6.950;2022-09-28T01:05:19;8.60;96.61
64858;SHT30;51335;51.148;6.950;2022-09-28T01:05:52;8.64;96.60
64858;SHT30;51335;51.148;6.950;2022-09-28T01:06:27;8.61;96.51
64858;SHT30;51335;51.148;6.950;2022-09-28T01:06:58;8.63;96.50
64858;SHT30;51335;51.148;6.950;2022-09-28T01:07:28;8.65;96.39
64858;SHT30;51335;51.148;6.950;2022-09-28T01:08:00;8.65;96.33
64858;SHT30;51335;51.148;6.950;2022-09-28T01:08:32;8.59;96.17
64858;SHT30;51335;51.148;6.950;2022-09-28T01:09:06;8.59;96.33
64858;SHT30;51335;51.148;6.950;2022-09-28T01:09:38;8.59;96.35
64858;SHT30;51335;51.148;6.950;2022-09-28T01:10:09;8.60;96.33
64858;SHT30;51335;51.148;6.950;2022-09-28T01:10:39;8.56;96.44
64858;SHT30;51335;51.148;6.950;2022-09-28T01:11:10;8.57;96.27
64858;SHT30;51335;51.148;6.950;2022-09-28T01:11:40;8.57;96.20
64858;SHT30;51335;51.148;6.950;2022-09-28T01:12:12;8.57;96.34
64858;SHT30;51335;51.148;6.950;2022-09-28T01:12:42;8.56;96.37
64858;SHT30;51335;51.148;6.950;2022-09-28T01:13:13;8.52;96.42
64858;SHT30;51335;51.148;6.950;2022-09-28T01:13:45;8.54;96.43
64858;SHT30;51335;51.148;6.950;2022-09-28T01:14:18;8.53;96.40
64858;SHT30;51335;51.148;6.950;2022-09-28T01:14:49;8.52;96.38
64858;SHT30;51335;51.148;6.950;2022-09-28T01:15:20;8.52;96.49
64858;SHT30;51335;51.148;6.950;2022-09-28T01:17:05;8.54;96.41
64858;SHT30;51335;51.148;6.950;2022-09-28T01:18:35;8.53;96.42
64858;SHT30;51335;51.148;6.950;2022-09-28T01:21:04;8.53;96.31
64858;SHT30;51335;51.148;6.950;2022-09-28T01:22:25;8.52;96.47
64858;SHT30;51335;51.148;6.950;2022-09-28T01:23:04;8.52;96.42
64858;SHT30;51335;51.148;6.950;2022-09-28T01:25:08;8.57;96.15
64858;SHT30;51335;51.148;6.950;2022-09-28T01:26:49;8.56;96.13
64858;SHT30;51335;51.148;6.950;2022-09-28T01:27:28;8.54;96.17
64858;SHT30;51335;51.148;6.950;2022-09-28T01:28:10;8.56;96.18
64858;SHT30;51335;51.148;6.950;2022-09-28T01:28:42;8.56;96.26
64858;SHT30;51335;51.148;6.950;2022-09-28T01:30:09;8.56;96.40
64858;SHT30;51335;51.148;6.950;2022-09-28T01:31:04;8.56;96.36
64858;SHT30;51335;51.148;6.950;2022-09-28T01:31:40;8.57;96.43
64858;SHT30;51335;51.148;6.950;2022-09-28T01:32:20;8.56;96.38
64858;SHT30;51335;51.148;6.950;2022-09-28T01:32:55;8.54;96.42
64858;SHT30;51335;51.148;6.950;2022-09-28T01:33:38;8.56;96.45
64858;SHT30;51335;51.148;6.950;2022-09-28T01:34:13;8.57;96.44
64858;SHT30;51335;51.148;6.950;2022-09-28T01:34:53;8.57;96.48
64858;SHT30;51335;51.148;6.950;2022-09-28T01:35:38;8.60;96.51
64858;SHT30;51335;51.148;6.950;2022-09-28T01:36:52;8.57;96.51
64858;SHT30;51335;51.148;6.950;2022-09-28T01:37:30;8.57;96.61
64858;SHT30;51335;51.148;6.950;2022-09-28T01:38:59;8.59;96.60
64858;SHT30;51335;51.148;6.950;2022-09-28T01:39:10;8.59;96.77
64858;SHT30;51335;51.148;6.950;2022-09-28T01:39:46;8.61;96.78
64858;SHT30;51335;51.148;6.950;2022-09-28T01:40:20;8.63;96.63
64858;SHT30;51335;51.148;6.950;2022-09-28T01:40:51;8.63;96.56
64858;SHT30;51335;51.148;6.950;2022-09-28T01:41:23;8.61;96.37
64858;SHT30;51335;51.148;6.950;2022-09-28T01:42:02;8.59;96.35
64858;SHT30;51335;51.148;6.950;2022-09-28T01:42:36;8.63;96.54
64858;SHT30;51335;51.148;6.950;2022-09-28T01:43:15;8.63;96.32
64858;SHT30;51335;51.148;6.950;2022-09-28T01:43:54;8.63;96.33
64858;SHT30;51335;51.148;6.950;2022-09-28T01:44:26;8.64;96.31
64858;SHT30;51335;51.148;6.950;2022-09-28T01:45:05;8.64;96.31
64858;SHT30;51335;51.148;6.950;2022-09-28T01:45:45;8.64;96.30
64858;SHT30;51335;51.148;6.950;2022-09-28T01:46:19;8.64;96.30
64858;SHT30;51335;51.148;6.950;2022-09-28T01:46:51;8.65;96.29
64858;SHT30;51335;51.148;6.950;2022-09-28T01:47:22;8.63;96.30
64858;SHT30;51335;51.148;6.950;2022-09-28T01:47:59;8.64;96.35
64858;SHT30;51335;51.148;6.950;2022-09-28T01:48:37;8.64;96.46
64858;SHT30;51335;51.148;6.950;2022-09-28T01:49:16;8.59;96.46
64858;SHT30;51335;51.148;6.950;2022-09-28T01:49:53;8.60;96.53
64858;SHT30;51335;51.148;6.950;2022-09-28T01:50:28;8.61;96.53
64858;SHT30;51335;51.148;6.950;2022-09-28T01:51:01;8.63;96.49
64858;SHT30;51335;51.148;6.950;2022-09-28T01:51:40;8.61;96.51
64858;SHT30;51335;51.148;6.950;2022-09-28T01:52:18;8.60;96.62
64858;SHT30;51335;51.148;6.950;2022-09-28T01:53:12;8.64;96.60
64858;SHT30;51335;51.148;6.950;2022-09-28T01:53:49;8.64;96.63
64858;SHT30;51335;51.148;6.950;2022-09-28T01:54:54;8.61;96.71
64858;SHT30;51335;51.148;6.950;2022-09-28T01:55:28;8.60;96.74
64858;SHT30;51335;51.148;6.950;2022-09-28T01:56:06;8.60;96.76
64858;SHT30;51335;51.148;6.950;2022-09-28T01:56:41;8.57;96.73
64858;SHT30;51335;51.148;6.950;2022-09-28T01:57:38;8.54;96.75
64858;SHT30;51335;51.148;6.950;2022-09-28T01:58:14;8.56;96.82
64858;SHT30;51335;51.148;6.950;2022-09-28T01:58:51;8.56;96.83
64858;SHT30;51335;51.148;6.950;2022-09-28T01:59:26;8.54;96.82
64858;SHT30;51335;51.148;6.950;2022-09-28T02:00:06;8.54;96.75
64858;SHT30;51335;51.148;6.950;2022-09-28T02:00:40;8.53;96.71
64858;SHT30;51335;51.148;6.950;2022-09-28T02:01:23;8.53;96.68
64858;SHT30;51335;51.148;6.950;2022-09-28T02:02:15;8.50;96.73
64858;SHT30;51335;51.148;6.950;2022-09-28T02:03:11;8.47;96.73
64858;SHT30;51335;51.148;6.950;2022-09-28T02:03:47;8.44;96.78
64858;SHT30;51335;51.148;6.950;2022-09-28T02:04:25;8.43;96.77
64858;SHT30;51335;51.148;6.950;2022-09-28T02:05:05;8.39;96.81
64858;SHT30;51335;51.148;6.950;2022-09-28T02:05:42;8.40;96.79
64858;SHT30;51335;51.148;6.950;2022-09-28T02:06:42;8.37;96.87
64858;SHT30;51335;51.148;6.950;2022-09-28T02:07:20;8.33;96.99
64858;SHT30;51335;51.148;6.950;2022-09-28T02:08:12;8.36;97.07
64858;SHT30;51335;51.148;6.950;2022-09-28T02:08:56;8.33;97.18
64858;SHT30;51335;51.148;6.950;2022-09-28T02:09:43;8.34;97.24
64858;SHT30;51335;51.148;6.950;2022-09-28T02:10:18;8.34;97.27
64858;SHT30;51335;51.148;6.950;2022-09-28T02:10:59;8.36;97.25
64858;SHT30;51335;51.148;6.950;2022-09-28T02:11:31;8.34;97.32
64858;SHT30;51335;51.148;6.950;2022-09-28T02:12:07;8.34;97.36
64858;SHT30;51335;51.148;6.950;2022-09-28T02:12:45;8.36;97.34
64858;SHT30;51335;51.148;6.950;2022-09-28T02:13:23;8.34;97.36
64858;SHT30;51335;51.148;6.950;2022-09-28T02:14:04;8.39;97.40
64858;SHT30;51335;51.148;6.950;2022-09-28T02:14:36;8.39;97.45
64858;SHT30;51335;51.148;6.950;2022-09-28T02:15:19;8.37;97.45
64858;SHT30;51335;51.148;6.950;2022-09-28T02:15:57;8.39;97.49
64858;SHT30;51335;51.148;6.950;2022-09-28T02:16:41;8.39;97.52
64858;SHT30;51335;51.148;6.950;2022-09-28T02:17:12;8.40;97.53
64858;SHT30;51335;51.148;6.950;2022-09-28T02:17:42;8.42;97.45
64858;SHT30;51335;51.148;6.950;2022-09-28T02:18:13;8.39;97.55
64858;SHT30;51335;51.148;6.950;2022-09-28T02:18:44;8.43;97.63
64858;SHT30;51335;51.148;6.950;2022-09-28T02:19:17;8.43;97.57
64858;SHT30;51335;51.148;6.950;2022-09-28T02:19:48;8.42;97.50
64858;SHT30;51335;51.148;6.950;2022-09-28T02:20:20;8.46;97.49
64858;SHT30;51335;51.148;6.950;2022-09-28T02:20:58;8.43;97.56
64858;SHT30;51335;51.148;6.950;2022-09-28T02:21:40;8.44;97.51
64858;SHT30;51335;51.148;6.950;2022-09-28T02:22:24;8.47;97.52
64858;SHT30;51335;51.148;6.950;2022-09-28T02:22:58;8.46;97.48
64858;SHT30;51335;51.148;6.950;2022-09-28T02:23:34;8.46;97.56
64858;SHT30;51335;51.148;6.950;2022-09-28T02:24:12;8.50;97.50
64858;SHT30;51335;51.148;6.950;2022-09-28T02:24:56;8.47;97.49
64858;SHT30;51335;51.148;6.950;2022-09-28T02:25:39;8.50;97.48
64858;SHT30;51335;51.148;6.950;2022-09-28T02:26:13;8.50;97.46
64858;SHT30;51335;51.148;6.950;2022-09-28T02:26:48;8.50;97.41
64858;SHT30;51335;51.148;6.950;2022-09-28T02:27:59;8.50;97.35
64858;SHT30;51335;51.148;6.950;2022-09-28T02:28:29;8.49;97.41
64858;SHT30;51335;51.148;6.950;2022-09-28T02:29:00;8.50;97.47
64858;SHT30;51335;51.148;6.950;2022-09-28T02:29:30;8.50;97.48
64858;SHT30;51335;51.148;6.950;2022-09-28T02:30:01;8.50;97.48
64858;SHT30;51335;51.148;6.950;2022-09-28T02:30:35;8.53;97.46
64858;SHT30;51335;51.148;6.950;2022-09-28T02:31:06;8.56;97.40
64858;SHT30;51335;51.148;6.950;2022-09-28T02:31:36;8.59;97.40
64858;SHT30;51335;51.148;6.950;2022-09-28T02:32:07;8.59;97.41
64858;SHT30;51335;51.148;6.950;2022-09-28T02:32:40;8.56;97.38
64858;SHT30;51335;51.148;6.950;2022-09-28T02:33:37;8.60;97.38
64858;SHT30;51335;51.148;6.950;2022-09-28T02:34:08;8.57;97.38
64858;SHT30;51335;51.148;6.950;2022-09-28T02:34:39;8.63;97.38
64858;SHT30;51335;51.148;6.950;2022-09-28T02:35:15;8.61;97.22
64858;SHT30;51335;51.148;6.950;2022-09-28T02:35:45;8.64;97.22
64858;SHT30;51335;51.148;6.950;2022-09-28T02:36:16;8.61;97.15
64858;SHT30;51335;51.148;6.950;2022-09-28T02:36:46;8.61;97.14
64858;SHT30;51335;51.148;6.950;2022-09-28T02:37:16;8.63;97.16
64858;SHT30;51335;51.148;6.950;2022-09-28T02:37:48;8.63;97.23
64858;SHT30;51335;51.148;6.950;2022-09-28T02:38:18;8.67;97.16
64858;SHT30;51335;51.148;6.950;2022-09-28T02:38:49;8.73;97.04
64858;SHT30;51335;51.148;6.950;2022-09-28T02:39:20;8.73;96.95
64858;SHT30;51335;51.148;6.950;2022-09-28T02:39:51;8.71;96.98
64858;SHT30;51335;51.148;6.950;2022-09-28T02:40:24;8.67;96.96
64858;SHT30;51335;51.148;6.950;2022-09-28T02:41:25;8.67;96.94
64858;SHT30;51335;51.148;6.950;2022-09-28T02:43:55;8.64;97.10
64858;SHT30;51335;51.148;6.950;2022-09-28T02:48:32;8.65;96.80
64858;SHT30;51335;51.148;6.950;2022-09-28T02:50:14;8.68;96.51
64858;SHT30;51335;51.148;6.950;2022-09-28T02:52:31;8.68;96.65
64858;SHT30;51335;51.148;6.950;2022-09-28T02:53:15;8.65;96.64
64858;SHT30;51335;51.148;6.950;2022-09-28T02:57:08;8.61;96.55
64858;SHT30;51335;51.148;6.950;2022-09-28T03:00:21;8.65;96.59
64858;SHT30;51335;51.148;6.950;2022-09-28T03:03:12;8.61;96.81
64858;SHT30;51335;51.148;6.950;2022-09-28T03:03:54;8.59;96.72
64858;SHT30;51335;51.148;6.950;2022-09-28T03:05:43;8.59;96.92
64858;SHT30;51335;51.148;6.950;2022-09-28T03:06:23;8.54;97.02
64858;SHT30;51335;51.148;6.950;2022-09-28T03:07:35;8.60;97.00
64858;SHT30;51335;51.148;6.950;2022-09-28T03:08:58;8.60;96.80
64858;SHT30;51335;51.148;6.950;2022-09-28T03:09:36;8.61;96.78
64858;SHT30;51335;51.148;6.950;2022-09-28T03:10:16;8.63;96.79
64858;SHT30;51335;51.148;6.950;2022-09-28T03:11:29;8.64;96.79
64858;SHT30;51335;51.148;6.950;2022-09-28T03:12:07;8.61;96.75
64858;SHT30;51335;51.148;6.950;2022-09-28T03:12:40;8.61;96.82
64858;SHT30;51335;51.148;6.950;2022-09-28T03:13:11;8.64;96.77
64858;SHT30;51335;51.148;6.950;2022-09-28T03:13:42;8.63;96.73
64858;SHT30;51335;51.148;6.950;2022-09-28T03:14:13;8.65;96.78
64858;SHT30;51335;51.148;6.950;2022-09-28T03:14:44;8.63;96.80
64858;SHT30;51335;51.148;6.950;2022-09-28T03:15:40;8.63;96.89
64858;SHT30;51335;51.148;6.950;2022-09-28T03:16:15;8.63;96.95
64858;SHT30;51335;51.148;6.950;2022-09-28T03:16:46;8.63;96.95
64858;SHT30;51335;51.148;6.950;2022-09-28T03:17:19;8.65;96.93
64858;SHT30;51335;51.148;6.950;2022-09-28T03:17:50;8.67;96.85
64858;SHT30;51335;51.148;6.950;2022-09-28T03:18:20;8.68;96.84
64858;SHT30;51335;51.148;6.950;2022-09-28T03:18:51;8.68;96.81
64858;SHT30;51335;51.148;6.950;2022-09-28T03:19:25;8.68;96.88
64858;SHT30;51335;51.148;6.950;2022-09-28T03:19:56;8.67;96.86
64858;SHT30;51335;51.148;6.950;2022-09-28T03:20:28;8.67;96.98
64858;SHT30;51335;51.148;6.950;2022-09-28T03:20:59;8.59;97.08
64858;SHT30;51335;51.148;6.950;2022-09-28T03:21:30;8.60;96.74
64858;SHT30;51335;51.148;6.950;2022-09-28T03:22:00;8.54;96.74
64858;SHT30;51335;51.148;6.950;2022-09-28T03:22:31;8.56;96.90
64858;SHT30;51335;51.148;6.950;2022-09-28T03:23:01;8.53;97.21
64858;SHT30;51335;51.148;6.950;2022-09-28T03:23:32;8.57;97.27
64858;SHT30;51335;51.148;6.950;2022-09-28T03:24:02;8.57;97.13
64858;SHT30;51335;51.148;6.950;2022-09-28T03:24:33;8.52;97.01
64858;SHT30;51335;51.148;6.950;2022-09-28T03:25:05;8.54;97.04
64858;SHT30;51335;51.148;6.950;2022-09-28T03:25:35;8.57;97.08
64858;SHT30;51335;51.148;6.950;2022-09-28T03:26:10;8.59;96.92
64858;SHT30;51335;51.148;6.950;2022-09-28T03:26:40;8.61;96.92
64858;SHT30;51335;51.148;6.950;2022-09-28T03:27:11;8.60;96.87
64858;SHT30;51335;51.148;6.950;2022-09-28T03:27:41;8.60;96.82
64858;SHT30;51335;51.148;6.950;2022-09-28T03:28:11;8.63;96.78
64858;SHT30;51335;51.148;6.950;2022-09-28T03:28:42;8.63;96.74
64858;SHT30;51335;51.148;6.950;2022-09-28T03:29:12;8.61;96.76
64858;SHT30;51335;51.148;6.950;2022-09-28T03:29:42;8.60;96.78
64858;SHT30;51335;51.148;6.950;2022-09-28T03:30:13;8.61;96.82
64858;SHT30;51335;51.148;6.950;2022-09-28T03:30:43;8.61;96.86
64858;SHT30;51335;51.148;6.950;2022-09-28T03:31:13;8.64;96.88
64858;SHT30;51335;51.148;6.950;2022-09-28T03:31:43;8.65;96.86
64858;SHT30;51335;51.148;6.950;2022-09-28T03:32:14;8.63;96.90
64858;SHT30;51335;51.148;6.950;2022-09-28T03:32:44;8.65;96.90
64858;SHT30;51335;51.148;6.950;2022-09-28T03:33:14;8.63;96.98
64858;SHT30;51335;51.148;6.950;2022-09-28T03:33:45;8.63;96.99
64858;SHT30;51335;51.148;6.950;2022-09-28T03:34:15;8.67;97.04
64858;SHT30;51335;51.148;6.950;2022-09-28T03:34:45;8.67;97.07
64858;SHT30;51335;51.148;6.950;2022-09-28T03:35:15;8.70;97.09
64858;SHT30;51335;51.148;6.950;2022-09-28T03:35:47;8.73;97.10
64858;SHT30;51335;51.148;6.950;2022-09-28T03:36:18;8.71;97.09
64858;SHT30;51335;51.148;6.950;2022-09-28T03:36:48;8.70;97.04
64858;SHT30;51335;51.148;6.950;2022-09-28T03:37:18;8.70;97.14
64858;SHT30;51335;51.148;6.950;2022-09-28T03:37:48;8.78;97.11
64858;SHT30;51335;51.148;6.950;2022-09-28T03:38:19;8.77;97.01
64858;SHT30;51335;51.148;6.950;2022-09-28T03:38:53;8.75;96.97
64858;SHT30;51335;51.148;6.950;2022-09-28T03:39:23;8.77;96.95
64858;SHT30;51335;51.148;6.950;2022-09-28T03:39:53;8.73;96.73
64858;SHT30;51335;51.148;6.950;2022-09-28T03:40:23;8.73;96.78
64858;SHT30;51335;51.148;6.950;2022-09-28T03:40:55;8.67;96.72
64858;SHT30;51335;51.148;6.950;2022-09-28T03:41:26;8.64;96.67
64858;SHT30;51335;51.148;6.950;2022-09-28T03:41:59;8.64;96.85
64858;SHT30;51335;51.148;6.950;2022-09-28T03:42:29;8.63;96.94
64858;SHT30;51335;51.148;6.950;2022-09-28T03:43:00;8.63;96.89
64858;SHT30;51335;51.148;6.950;2022-09-28T03:43:30;8.64;96.88
64858;SHT30;51335;51.148;6.950;2022-09-28T03:44:00;8.65;96.89
64858;SHT30;51335;51.148;6.950;2022-09-28T03:44:31;8.59;97.09
64858;SHT30;51335;51.148;6.950;2022-09-28T03:45:01;8.63;97.31
64858;SHT30;51335;51.148;6.950;2022-09-28T03:45:31;8.64;97.12
64858;SHT30;51335;51.148;6.950;2022-09-28T03:46:02;8.64;96.99
64858;SHT30;51335;51.148;6.950;2022-09-28T03:46:32;8.63;96.97
64858;SHT30;51335;51.148;6.950;2022-09-28T03:47:02;8.59;96.82
64858;SHT30;51335;51.148;6.950;2022-09-28T03:47:33;8.59;96.95
64858;SHT30;51335;51.148;6.950;2022-09-28T03:48:03;8.57;97.03
64858;SHT30;51335;51.148;6.950;2022-09-28T03:48:34;8.59;96.99
64858;SHT30;51335;51.148;6.950;2022-09-28T03:49:05;8.60;97.02
64858;SHT30;51335;51.148;6.950;2022-09-28T03:49:35;8.64;97.01
64858;SHT30;51335;51.148;6.950;2022-09-28T03:50:06;8.64;96.94
64858;SHT30;51335;51.148;6.950;2022-09-28T03:50:36;8.65;96.91
64858;SHT30;51335;51.148;6.950;2022-09-28T03:51:08;8.64;96.90
64858;SHT30;51335;51.148;6.950;2022-09-28T03:51:39;8.65;97.04
64858;SHT30;51335;51.148;6.950;2022-09-28T03:52:09;8.63;97.00
64858;SHT30;51335;51.148;6.950;2022-09-28T03:52:40;8.60;97.00
64858;SHT30;51335;51.148;6.950;2022-09-28T03:53:10;8.60;97.23
64858;SHT30;51335;51.148;6.950;2022-09-28T03:53:40;8.61;97.25
64858;SHT30;51335;51.148;6.950;2022-09-28T03:54:11;8.68;96.93
64858;SHT30;51335;51.148;6.950;2022-09-28T03:54:41;8.68;96.83
64858;SHT30;51335;51.148;6.950;2022-09-28T03:55:11;8.65;97.07
64858;SHT30;51335;51.148;6.950;2022-09-28T03:55:41;8.68;97.06
64858;SHT30;51335;51.148;6.950;2022-09-28T03:56:13;8.67;96.95
64858;SHT30;51335;51.148;6.950;2022-09-28T03:56:44;8.65;96.85
64858;SHT30;51335;51.148;6.950;2022-09-28T03:57:14;8.63;97.10
64858;SHT30;51335;51.148;6.950;2022-09-28T03:57:52;8.65;96.87
64858;SHT30;51335;51.148;6.950;2022-09-28T03:58:22;8.65;96.78
64858;SHT30;51335;51.148;6.950;2022-09-28T03:58:52;8.63;96.79
64858;SHT30;51335;51.148;6.950;2022-09-28T03:59:23;8.65;96.69
64858;SHT30;51335;51.148;6.950;2022-09-28T03:59:53;8.65;96.67
64858;SHT30;51335;51.148;6.950;2022-09-28T04:00:23;8.64;96.75
64858;SHT30;51335;51.148;6.950;2022-09-28T04:00:53;8.63;96.73
64858;SHT30;51335;51.148;6.950;2022-09-28T04:01:24;8.61;96.80
64858;SHT30;51335;51.148;6.950;2022-09-28T04:01:54;8.61;96.80
64858;SHT30;51335;51.148;6.950;2022-09-28T04:02:24;8.61;96.74
64858;SHT30;51335;51.148;6.950;2022-09-28T04:02:54;8.63;96.80
64858;SHT30;51335;51.148;6.950;2022-09-28T04:03:25;8.60;96.82
64858;SHT30;51335;51.148;6.950;2022-09-28T04:03:55;8.61;96.85
64858;SHT30;51335;51.148;6.950;2022-09-28T04:04:25;8.60;96.86
64858;SHT30;51335;51.148;6.950;2022-09-28T04:04:56;8.57;96.91
64858;SHT30;51335;51.148;6.950;2022-09-28T04:05:26;8.57;97.12
64858;SHT30;51335;51.148;6.950;2022-09-28T04:05:56;8.57;96.89
64858;SHT30;51335;51.148;6.950;2022-09-28T04:06:27;8.60;96.90
64858;SHT30;51335;51.148;6.950;2022-09-28T04:06:57;8.54;96.78
64858;SHT30;51335;51.148;6.950;2022-09-28T04:07:28;8.52;96.73
64858;SHT30;51335;51.148;6.950;2022-09-28T04:07:58;8.54;96.82
64858;SHT30;51335;51.148;6.950;2022-09-28T04:08:28;8.54;96.86